sensor_id;sensor_type;location;lat;lon;timestamp;P1;durP1;ratioP1;P2;durP2;ratioP2
33824;SDS011;20127;48.962;8.342;2022-07-23T00:01:18;7.95;;;4.70;;
33824;SDS011;20127;48.962;8.342;2022-07-23T00:04:20;9.60;;;4.68;;
33824;SDS011;20127;48.962;8.342;2022-07-23T00:07:21;7.22;;;4.60;;
33824;SDS011;20127;48.962;8.342;2022-07-23T00:10:23;5.95;;;4.63;;
33824;SDS011;20127;48.962;8.342;2022-07-23T00:13:25;7.55;;;5.10;;
33824;SDS011;20127;48.962;8.342;2022-07-23T00:16:28;8.07;;;4.28;;
33824;SDS011;20127;48.962;8.342;2022-07-23T00:19:30;7.82;;;4.47;;
33824;SDS011;20127;48.962;8.342;2022-07-23T00:22:31;6.80;;;4.35;;
33824;SDS011;20127;48.962;8.342;2022-07-23T00:25:33;7.63;;;4.43;;
33824;SDS011;20127;48.962;8.342;2022-07-23T00:28:35;7.72;;;3.92;;
33824;SDS011;20127;48.962;8.342;2022-07-23T00:31:38;5.32;;;3.42;;
33824;SDS011;20127;48.962;8.342;2022-07-23T00:34:41;7.05;;;4.45;;
33824;SDS011;20127;48.962;8.342;2022-07-23T00:37:42;7.75;;;4.78;;
33824;SDS011;20127;48.962;8.342;2022-07-23T00:40:44;4.32;;;3.20;;
33824;SDS011;20127;48.962;8.342;2022-07-23T00:43:46;10.95;;;4.60;;
33824;SDS011;20127;48.962;8.342;2022-07-23T00:46:50;8.50;;;3.88;;
33824;SDS011;20127;48.962;8.342;2022-07-23T00:49:53;4.15;;;3.75;;
33824;SDS011;20127;48.962;8.342;2022-07-23T00:52:55;5.68;;;3.22;;
33824;SDS011;20127;48.962;8.342;2022-07-23T00:55:57;7.35;;;4.47;;
33824;SDS011;20127;48.962;8.342;2022-07-23T00:58:59;5.53;;;3.95;;
33824;SDS011;20127;48.962;8.342;2022-07-23T01:02:02;6.93;;;4.13;;
33824;SDS011;20127;48.962;8.342;2022-07-23T01:05:04;8.43;;;3.78;;
33824;SDS011;20127;48.962;8.342;2022-07-23T01:08:07;4.20;;;3.40;;
33824;SDS011;20127;48.962;8.342;2022-07-23T01:11:09;6.00;;;3.90;;
33824;SDS011;20127;48.962;8.342;2022-07-23T01:14:13;5.28;;;3.70;;
33824;SDS011;20127;48.962;8.342;2022-07-23T01:17:17;4.20;;;3.13;;
33824;SDS011;20127;48.962;8.342;2022-07-23T01:20:19;5.82;;;3.25;;
33824;SDS011;20127;48.962;8.342;2022-07-23T01:23:22;5.03;;;3.25;;
33824;SDS011;20127;48.962;8.342;2022-07-23T01:26:24;5.30;;;3.50;;
33824;SDS011;20127;48.962;8.342;2022-07-23T01:29:26;7.90;;;3.75;;
33824;SDS011;20127;48.962;8.342;2022-07-23T01:32:27;8.40;;;3.33;;
33824;SDS011;20127;48.962;8.342;2022-07-23T01:35:29;5.68;;;3.28;;
33824;SDS011;20127;48.962;8.342;2022-07-23T01:38:32;3.13;;;2.67;;
33824;SDS011;20127;48.962;8.342;2022-07-23T01:41:34;5.07;;;3.28;;
33824;SDS011;20127;48.962;8.342;2022-07-23T01:44:36;6.13;;;3.17;;
33824;SDS011;20127;48.962;8.342;2022-07-23T01:47:37;5.63;;;3.38;;
33824;SDS011;20127;48.962;8.342;2022-07-23T01:50:39;7.80;;;3.50;;
33824;SDS011;20127;48.962;8.342;2022-07-23T01:53:43;4.78;;;3.15;;
33824;SDS011;20127;48.962;8.342;2022-07-23T01:56:44;3.88;;;3.38;;
33824;SDS011;20127;48.962;8.342;2022-07-23T01:59:46;4.93;;;3.30;;
33824;SDS011;20127;48.962;8.342;2022-07-23T02:02:48;6.85;;;3.40;;
33824;SDS011;20127;48.962;8.342;2022-07-23T02:05:50;4.45;;;2.97;;
33824;SDS011;20127;48.962;8.342;2022-07-23T02:08:53;8.57;;;3.70;;
33824;SDS011;20127;48.962;8.342;2022-07-23T02:11:55;3.75;;;3.05;;
33824;SDS011;20127;48.962;8.342;2022-07-23T02:14:57;4.50;;;3.38;;
33824;SDS011;20127;48.962;8.342;2022-07-23T02:17:59;7.00;;;3.55;;
33824;SDS011;20127;48.962;8.342;2022-07-23T02:21:01;4.30;;;3.67;;
33824;SDS011;20127;48.962;8.342;2022-07-23T02:24:04;5.72;;;3.10;;
33824;SDS011;20127;48.962;8.342;2022-07-23T02:27:06;5.70;;;3.60;;
33824;SDS011;20127;48.962;8.342;2022-07-23T02:30:08;10.52;;;5.97;;
33824;SDS011;20127;48.962;8.342;2022-07-23T02:33:11;4.40;;;3.35;;
33824;SDS011;20127;48.962;8.342;2022-07-23T02:36:12;4.97;;;2.72;;
33824;SDS011;20127;48.962;8.342;2022-07-23T02:39:15;3.47;;;3.03;;
33824;SDS011;20127;48.962;8.342;2022-07-23T02:42:17;5.25;;;3.30;;
33824;SDS011;20127;48.962;8.342;2022-07-23T02:45:19;4.10;;;3.40;;
33824;SDS011;20127;48.962;8.342;2022-07-23T02:48:21;5.00;;;3.60;;
33824;SDS011;20127;48.962;8.342;2022-07-23T02:51:22;5.55;;;4.22;;
33824;SDS011;20127;48.962;8.342;2022-07-23T02:54:25;4.80;;;3.50;;
33824;SDS011;20127;48.962;8.342;2022-07-23T02:57:27;5.45;;;3.40;;
33824;SDS011;20127;48.962;8.342;2022-07-23T03:00:29;7.28;;;3.38;;
33824;SDS011;20127;48.962;8.342;2022-07-23T03:03:31;6.47;;;3.70;;
33824;SDS011;20127;48.962;8.342;2022-07-23T03:06:33;6.53;;;3.13;;
33824;SDS011;20127;48.962;8.342;2022-07-23T03:09:36;5.38;;;3.08;;
33824;SDS011;20127;48.962;8.342;2022-07-23T03:12:37;4.30;;;3.17;;
33824;SDS011;20127;48.962;8.342;2022-07-23T03:15:39;4.53;;;2.47;;
33824;SDS011;20127;48.962;8.342;2022-07-23T03:18:41;5.35;;;2.55;;
33824;SDS011;20127;48.962;8.342;2022-07-23T03:21:42;4.15;;;2.60;;
33824;SDS011;20127;48.962;8.342;2022-07-23T03:24:45;8.35;;;2.80;;
33824;SDS011;20127;48.962;8.342;2022-07-23T03:27:56;4.03;;;2.70;;
33824;SDS011;20127;48.962;8.342;2022-07-23T03:30:58;5.03;;;2.58;;
33824;SDS011;20127;48.962;8.342;2022-07-23T03:34:00;5.93;;;2.55;;
33824;SDS011;20127;48.962;8.342;2022-07-23T03:37:01;3.53;;;2.70;;
33824;SDS011;20127;48.962;8.342;2022-07-23T03:40:05;4.07;;;2.40;;
33824;SDS011;20127;48.962;8.342;2022-07-23T03:43:08;3.47;;;2.95;;
33824;SDS011;20127;48.962;8.342;2022-07-23T03:46:09;4.22;;;2.78;;
33824;SDS011;20127;48.962;8.342;2022-07-23T03:49:11;4.13;;;2.47;;
33824;SDS011;20127;48.962;8.342;2022-07-23T03:52:13;2.97;;;2.35;;
33824;SDS011;20127;48.962;8.342;2022-07-23T03:55:16;3.58;;;2.72;;
33824;SDS011;20127;48.962;8.342;2022-07-23T03:58:18;5.88;;;2.72;;
33824;SDS011;20127;48.962;8.342;2022-07-23T04:01:19;3.70;;;2.83;;
33824;SDS011;20127;48.962;8.342;2022-07-23T04:04:21;5.82;;;2.92;;
33824;SDS011;20127;48.962;8.342;2022-07-23T04:07:23;3.17;;;2.38;;
33824;SDS011;20127;48.962;8.342;2022-07-23T04:10:26;6.45;;;2.50;;
33824;SDS011;20127;48.962;8.342;2022-07-23T04:13:27;6.35;;;2.70;;
33824;SDS011;20127;48.962;8.342;2022-07-23T04:16:29;3.78;;;2.65;;
33824;SDS011;20127;48.962;8.342;2022-07-23T04:19:31;8.82;;;3.20;;
33824;SDS011;20127;48.962;8.342;2022-07-23T04:22:33;5.28;;;2.78;;
33824;SDS011;20127;48.962;8.342;2022-07-23T04:25:36;4.47;;;2.55;;
33824;SDS011;20127;48.962;8.342;2022-07-23T04:28:38;3.30;;;2.58;;
33824;SDS011;20127;48.962;8.342;2022-07-23T04:31:39;9.10;;;2.88;;
33824;SDS011;20127;48.962;8.342;2022-07-23T04:34:41;4.68;;;2.90;;
33824;SDS011;20127;48.962;8.342;2022-07-23T04:37:43;4.85;;;2.80;;
33824;SDS011;20127;48.962;8.342;2022-07-23T04:40:46;3.83;;;2.22;;
33824;SDS011;20127;48.962;8.342;2022-07-23T04:43:48;6.63;;;2.90;;
33824;SDS011;20127;48.962;8.342;2022-07-23T04:46:49;3.38;;;2.60;;
33824;SDS011;20127;48.962;8.342;2022-07-23T04:49:51;5.72;;;2.72;;
33824;SDS011;20127;48.962;8.342;2022-07-23T04:52:53;5.32;;;2.25;;
33824;SDS011;20127;48.962;8.342;2022-07-23T04:55:56;4.32;;;2.78;;
33824;SDS011;20127;48.962;8.342;2022-07-23T04:58:57;5.70;;;3.33;;
33824;SDS011;20127;48.962;8.342;2022-07-23T05:01:59;8.68;;;3.03;;
33824;SDS011;20127;48.962;8.342;2022-07-23T05:05:01;3.45;;;2.53;;
33824;SDS011;20127;48.962;8.342;2022-07-23T05:08:03;5.22;;;2.83;;
33824;SDS011;20127;48.962;8.342;2022-07-23T05:11:06;5.55;;;2.50;;
33824;SDS011;20127;48.962;8.342;2022-07-23T05:14:08;5.85;;;2.67;;
33824;SDS011;20127;48.962;8.342;2022-07-23T05:17:12;4.15;;;2.22;;
33824;SDS011;20127;48.962;8.342;2022-07-23T05:20:14;3.88;;;2.60;;
33824;SDS011;20127;48.962;8.342;2022-07-23T05:23:15;6.55;;;2.65;;
33824;SDS011;20127;48.962;8.342;2022-07-23T05:26:19;5.68;;;2.55;;
33824;SDS011;20127;48.962;8.342;2022-07-23T05:29:20;7.63;;;2.60;;
33824;SDS011;20127;48.962;8.342;2022-07-23T05:32:22;4.10;;;2.13;;
33824;SDS011;20127;48.962;8.342;2022-07-23T05:35:25;3.88;;;2.83;;
33824;SDS011;20127;48.962;8.342;2022-07-23T05:38:27;3.72;;;3.00;;
33824;SDS011;20127;48.962;8.342;2022-07-23T05:41:30;4.35;;;2.97;;
33824;SDS011;20127;48.962;8.342;2022-07-23T05:44:32;6.13;;;2.75;;
33824;SDS011;20127;48.962;8.342;2022-07-23T05:47:39;4.43;;;2.83;;
33824;SDS011;20127;48.962;8.342;2022-07-23T05:50:44;6.65;;;2.85;;
33824;SDS011;20127;48.962;8.342;2022-07-23T05:53:46;4.47;;;3.13;;
33824;SDS011;20127;48.962;8.342;2022-07-23T05:56:49;20.77;;;5.25;;
33824;SDS011;20127;48.962;8.342;2022-07-23T05:59:52;8.70;;;4.30;;
33824;SDS011;20127;48.962;8.342;2022-07-23T06:02:54;6.35;;;4.05;;
33824;SDS011;20127;48.962;8.342;2022-07-23T06:05:56;7.65;;;4.80;;
33824;SDS011;20127;48.962;8.342;2022-07-23T06:08:58;8.07;;;4.25;;
33824;SDS011;20127;48.962;8.342;2022-07-23T06:12:01;8.88;;;4.90;;
33824;SDS011;20127;48.962;8.342;2022-07-23T06:15:03;9.30;;;4.55;;
33824;SDS011;20127;48.962;8.342;2022-07-23T06:18:05;5.72;;;4.15;;
33824;SDS011;20127;48.962;8.342;2022-07-23T06:21:07;8.88;;;4.07;;
33824;SDS011;20127;48.962;8.342;2022-07-23T06:24:09;6.88;;;3.92;;
33824;SDS011;20127;48.962;8.342;2022-07-23T06:27:12;9.77;;;4.82;;
33824;SDS011;20127;48.962;8.342;2022-07-23T06:30:14;6.05;;;4.22;;
33824;SDS011;20127;48.962;8.342;2022-07-23T06:33:17;6.45;;;4.60;;
33824;SDS011;20127;48.962;8.342;2022-07-23T06:36:19;7.82;;;4.88;;
33824;SDS011;20127;48.962;8.342;2022-07-23T06:39:20;7.53;;;4.50;;
33824;SDS011;20127;48.962;8.342;2022-07-23T06:42:23;7.10;;;4.75;;
33824;SDS011;20127;48.962;8.342;2022-07-23T06:45:25;8.07;;;4.13;;
33824;SDS011;20127;48.962;8.342;2022-07-23T06:48:27;7.22;;;4.53;;
33824;SDS011;20127;48.962;8.342;2022-07-23T06:51:29;6.15;;;4.15;;
33824;SDS011;20127;48.962;8.342;2022-07-23T06:54:30;6.50;;;4.43;;
33824;SDS011;20127;48.962;8.342;2022-07-23T06:57:33;9.75;;;4.88;;
33824;SDS011;20127;48.962;8.342;2022-07-23T07:00:35;7.72;;;5.00;;
33824;SDS011;20127;48.962;8.342;2022-07-23T07:03:37;7.97;;;4.50;;
33824;SDS011;20127;48.962;8.342;2022-07-23T07:06:39;6.22;;;4.00;;
33824;SDS011;20127;48.962;8.342;2022-07-23T07:09:41;18.85;;;6.20;;
33824;SDS011;20127;48.962;8.342;2022-07-23T07:12:44;7.00;;;4.47;;
33824;SDS011;20127;48.962;8.342;2022-07-23T07:15:45;6.10;;;4.22;;
33824;SDS011;20127;48.962;8.342;2022-07-23T07:18:47;5.97;;;4.20;;
33824;SDS011;20127;48.962;8.342;2022-07-23T07:21:49;5.38;;;3.53;;
33824;SDS011;20127;48.962;8.342;2022-07-23T07:24:50;6.07;;;4.88;;
33824;SDS011;20127;48.962;8.342;2022-07-23T07:27:53;5.40;;;4.20;;
33824;SDS011;20127;48.962;8.342;2022-07-23T07:31:03;6.95;;;4.63;;
33824;SDS011;20127;48.962;8.342;2022-07-23T07:34:05;8.45;;;4.70;;
33824;SDS011;20127;48.962;8.342;2022-07-23T07:37:06;7.68;;;4.32;;
33824;SDS011;20127;48.962;8.342;2022-07-23T07:40:08;7.55;;;3.65;;
33824;SDS011;20127;48.962;8.342;2022-07-23T07:43:12;7.07;;;4.10;;
33824;SDS011;20127;48.962;8.342;2022-07-23T07:46:14;8.73;;;4.20;;
33824;SDS011;20127;48.962;8.342;2022-07-23T07:49:15;6.43;;;3.97;;
33824;SDS011;20127;48.962;8.342;2022-07-23T07:52:19;5.38;;;3.42;;
33824;SDS011;20127;48.962;8.342;2022-07-23T07:55:20;7.45;;;3.60;;
33824;SDS011;20127;48.962;8.342;2022-07-23T07:58:24;4.72;;;3.08;;
33824;SDS011;20127;48.962;8.342;2022-07-23T08:01:25;4.97;;;3.25;;
33824;SDS011;20127;48.962;8.342;2022-07-23T08:04:27;6.05;;;3.33;;
33824;SDS011;20127;48.962;8.342;2022-07-23T08:07:29;6.28;;;3.67;;
33824;SDS011;20127;48.962;8.342;2022-07-23T08:10:31;6.45;;;4.80;;
33824;SDS011;20127;48.962;8.342;2022-07-23T08:13:34;7.82;;;3.30;;
33824;SDS011;20127;48.962;8.342;2022-07-23T08:16:36;8.48;;;4.15;;
33824;SDS011;20127;48.962;8.342;2022-07-23T08:19:37;5.38;;;3.42;;
33824;SDS011;20127;48.962;8.342;2022-07-23T08:22:42;5.32;;;3.78;;
33824;SDS011;20127;48.962;8.342;2022-07-23T08:25:45;5.03;;;3.22;;
33824;SDS011;20127;48.962;8.342;2022-07-23T08:28:48;5.65;;;3.38;;
33824;SDS011;20127;48.962;8.342;2022-07-23T08:31:50;8.50;;;3.53;;
33824;SDS011;20127;48.962;8.342;2022-07-23T08:34:52;8.63;;;3.50;;
33824;SDS011;20127;48.962;8.342;2022-07-23T08:37:53;3.53;;;2.78;;
33824;SDS011;20127;48.962;8.342;2022-07-23T08:40:55;4.05;;;3.13;;
33824;SDS011;20127;48.962;8.342;2022-07-23T08:44:00;6.32;;;4.32;;
33824;SDS011;20127;48.962;8.342;2022-07-23T08:47:01;5.88;;;4.07;;
33824;SDS011;20127;48.962;8.342;2022-07-23T08:50:04;5.13;;;3.60;;
33824;SDS011;20127;48.962;8.342;2022-07-23T08:53:08;4.30;;;2.92;;
33824;SDS011;20127;48.962;8.342;2022-07-23T08:56:10;4.97;;;3.35;;
33824;SDS011;20127;48.962;8.342;2022-07-23T08:59:13;4.53;;;2.83;;
33824;SDS011;20127;48.962;8.342;2022-07-23T09:02:15;5.20;;;3.55;;
33824;SDS011;20127;48.962;8.342;2022-07-23T09:05:17;4.63;;;3.03;;
33824;SDS011;20127;48.962;8.342;2022-07-23T09:08:20;5.45;;;3.30;;
33824;SDS011;20127;48.962;8.342;2022-07-23T09:11:23;8.63;;;3.38;;
33824;SDS011;20127;48.962;8.342;2022-07-23T09:14:36;5.18;;;3.20;;
33824;SDS011;20127;48.962;8.342;2022-07-23T09:17:39;4.43;;;3.40;;
33824;SDS011;20127;48.962;8.342;2022-07-23T09:20:43;5.13;;;3.17;;
33824;SDS011;20127;48.962;8.342;2022-07-23T09:23:45;5.10;;;3.38;;
33824;SDS011;20127;48.962;8.342;2022-07-23T09:26:49;6.00;;;3.40;;
33824;SDS011;20127;48.962;8.342;2022-07-23T09:29:56;6.25;;;3.17;;
33824;SDS011;20127;48.962;8.342;2022-07-23T09:33:07;5.78;;;2.90;;
33824;SDS011;20127;48.962;8.342;2022-07-23T09:36:10;8.00;;;3.83;;
33824;SDS011;20127;48.962;8.342;2022-07-23T09:39:14;5.55;;;3.05;;
33824;SDS011;20127;48.962;8.342;2022-07-23T09:42:18;3.58;;;2.72;;
33824;SDS011;20127;48.962;8.342;2022-07-23T09:45:22;5.80;;;3.30;;
33824;SDS011;20127;48.962;8.342;2022-07-23T09:48:24;5.85;;;3.13;;
33824;SDS011;20127;48.962;8.342;2022-07-23T09:51:26;3.33;;;2.78;;
33824;SDS011;20127;48.962;8.342;2022-07-23T09:54:33;4.18;;;3.65;;
33824;SDS011;20127;48.962;8.342;2022-07-23T09:57:36;8.00;;;4.57;;
33824;SDS011;20127;48.962;8.342;2022-07-23T10:00:40;26.75;;;11.80;;
33824;SDS011;20127;48.962;8.342;2022-07-23T10:03:44;6.40;;;3.00;;
33824;SDS011;20127;48.962;8.342;2022-07-23T10:06:47;4.85;;;2.53;;
33824;SDS011;20127;48.962;8.342;2022-07-23T10:09:50;13.50;;;6.13;;
33824;SDS011;20127;48.962;8.342;2022-07-23T10:12:53;5.45;;;2.67;;
33824;SDS011;20127;48.962;8.342;2022-07-23T10:16:14;7.03;;;4.40;;
33824;SDS011;20127;48.962;8.342;2022-07-23T10:19:16;5.75;;;2.60;;
33824;SDS011;20127;48.962;8.342;2022-07-23T10:22:19;7.03;;;2.80;;
33824;SDS011;20127;48.962;8.342;2022-07-23T10:25:26;3.78;;;2.72;;
33824;SDS011;20127;48.962;8.342;2022-07-23T10:28:46;4.40;;;2.25;;
33824;SDS011;20127;48.962;8.342;2022-07-23T10:32:02;2.97;;;2.63;;
33824;SDS011;20127;48.962;8.342;2022-07-23T10:35:11;4.57;;;2.63;;
33824;SDS011;20127;48.962;8.342;2022-07-23T10:38:20;5.10;;;2.40;;
33824;SDS011;20127;48.962;8.342;2022-07-23T10:41:33;6.03;;;2.65;;
33824;SDS011;20127;48.962;8.342;2022-07-23T10:44:37;6.65;;;2.60;;
33824;SDS011;20127;48.962;8.342;2022-07-23T10:47:42;4.15;;;2.63;;
33824;SDS011;20127;48.962;8.342;2022-07-23T10:50:44;3.80;;;2.55;;
33824;SDS011;20127;48.962;8.342;2022-07-23T10:54:01;3.58;;;2.45;;
33824;SDS011;20127;48.962;8.342;2022-07-23T10:57:06;4.82;;;2.65;;
33824;SDS011;20127;48.962;8.342;2022-07-23T11:00:12;3.47;;;2.33;;
33824;SDS011;20127;48.962;8.342;2022-07-23T11:03:29;5.05;;;2.47;;
33824;SDS011;20127;48.962;8.342;2022-07-23T11:10:12;3.13;;;2.35;;
33824;SDS011;20127;48.962;8.342;2022-07-23T11:13:37;6.13;;;2.35;;
33824;SDS011;20127;48.962;8.342;2022-07-23T11:16:49;5.90;;;2.38;;
33824;SDS011;20127;48.962;8.342;2022-07-23T11:23:25;2.97;;;2.03;;
33824;SDS011;20127;48.962;8.342;2022-07-23T11:27:01;3.40;;;2.28;;
33824;SDS011;20127;48.962;8.342;2022-07-23T11:30:04;4.22;;;2.25;;
33824;SDS011;20127;48.962;8.342;2022-07-23T11:33:16;5.05;;;1.92;;
33824;SDS011;20127;48.962;8.342;2022-07-23T11:36:20;3.92;;;2.72;;
33824;SDS011;20127;48.962;8.342;2022-07-23T11:39:25;2.55;;;1.92;;
33824;SDS011;20127;48.962;8.342;2022-07-23T11:42:28;4.90;;;1.98;;
33824;SDS011;20127;48.962;8.342;2022-07-23T11:45:31;3.80;;;2.08;;
33824;SDS011;20127;48.962;8.342;2022-07-23T11:48:34;6.40;;;2.40;;
33824;SDS011;20127;48.962;8.342;2022-07-23T11:51:36;5.38;;;2.15;;
33824;SDS011;20127;48.962;8.342;2022-07-23T11:54:47;2.60;;;2.15;;
33824;SDS011;20127;48.962;8.342;2022-07-23T11:57:50;5.05;;;2.17;;
33824;SDS011;20127;48.962;8.342;2022-07-23T12:00:54;4.10;;;2.38;;
33824;SDS011;20127;48.962;8.342;2022-07-23T12:03:56;3.17;;;2.20;;
33824;SDS011;20127;48.962;8.342;2022-07-23T12:06:58;4.72;;;2.58;;
33824;SDS011;20127;48.962;8.342;2022-07-23T12:10:02;5.50;;;2.40;;
33824;SDS011;20127;48.962;8.342;2022-07-23T12:13:07;3.00;;;2.00;;
33824;SDS011;20127;48.962;8.342;2022-07-23T12:16:11;5.00;;;2.00;;
33824;SDS011;20127;48.962;8.342;2022-07-23T12:19:13;2.25;;;1.90;;
33824;SDS011;20127;48.962;8.342;2022-07-23T12:22:15;2.97;;;2.30;;
33824;SDS011;20127;48.962;8.342;2022-07-23T12:25:19;5.55;;;2.47;;
33824;SDS011;20127;48.962;8.342;2022-07-23T12:28:26;5.93;;;2.70;;
33824;SDS011;20127;48.962;8.342;2022-07-23T12:31:29;5.78;;;2.50;;
33824;SDS011;20127;48.962;8.342;2022-07-23T12:34:31;4.10;;;2.70;;
33824;SDS011;20127;48.962;8.342;2022-07-23T12:37:33;4.63;;;2.40;;
33824;SDS011;20127;48.962;8.342;2022-07-23T12:40:42;5.55;;;1.92;;
33824;SDS011;20127;48.962;8.342;2022-07-23T12:43:45;2.90;;;2.05;;
33824;SDS011;20127;48.962;8.342;2022-07-23T12:46:48;4.05;;;1.90;;
33824;SDS011;20127;48.962;8.342;2022-07-23T12:49:51;3.08;;;2.35;;
33824;SDS011;20127;48.962;8.342;2022-07-23T12:53:00;3.78;;;2.17;;
33824;SDS011;20127;48.962;8.342;2022-07-23T12:56:07;3.92;;;2.45;;
33824;SDS011;20127;48.962;8.342;2022-07-23T12:59:10;4.68;;;2.22;;
33824;SDS011;20127;48.962;8.342;2022-07-23T13:02:15;4.15;;;2.70;;
33824;SDS011;20127;48.962;8.342;2022-07-23T13:05:17;3.53;;;2.63;;
33824;SDS011;20127;48.962;8.342;2022-07-23T13:08:18;4.10;;;2.25;;
33824;SDS011;20127;48.962;8.342;2022-07-23T13:11:22;5.97;;;2.50;;
33824;SDS011;20127;48.962;8.342;2022-07-23T13:14:24;4.07;;;2.72;;
33824;SDS011;20127;48.962;8.342;2022-07-23T13:17:27;6.70;;;2.78;;
33824;SDS011;20127;48.962;8.342;2022-07-23T13:20:28;3.00;;;2.50;;
33824;SDS011;20127;48.962;8.342;2022-07-23T13:23:31;4.97;;;2.40;;
33824;SDS011;20127;48.962;8.342;2022-07-23T13:26:34;4.93;;;2.40;;
33824;SDS011;20127;48.962;8.342;2022-07-23T13:29:36;5.53;;;2.40;;
33824;SDS011;20127;48.962;8.342;2022-07-23T13:32:38;2.90;;;2.15;;
33824;SDS011;20127;48.962;8.342;2022-07-23T13:35:40;5.53;;;2.28;;
33824;SDS011;20127;48.962;8.342;2022-07-23T13:38:42;2.35;;;1.77;;
33824;SDS011;20127;48.962;8.342;2022-07-23T13:41:45;3.20;;;2.28;;
33824;SDS011;20127;48.962;8.342;2022-07-23T13:44:46;2.75;;;1.73;;
33824;SDS011;20127;48.962;8.342;2022-07-23T13:47:48;4.55;;;2.30;;
33824;SDS011;20127;48.962;8.342;2022-07-23T13:50:50;3.72;;;2.60;;
33824;SDS011;20127;48.962;8.342;2022-07-23T13:53:52;2.65;;;2.00;;
33824;SDS011;20127;48.962;8.342;2022-07-23T13:56:56;3.50;;;2.45;;
33824;SDS011;20127;48.962;8.342;2022-07-23T13:59:57;3.05;;;2.00;;
33824;SDS011;20127;48.962;8.342;2022-07-23T14:03:00;2.33;;;1.83;;
33824;SDS011;20127;48.962;8.342;2022-07-23T14:06:02;4.00;;;1.90;;
33824;SDS011;20127;48.962;8.342;2022-07-23T14:09:05;3.33;;;2.30;;
33824;SDS011;20127;48.962;8.342;2022-07-23T14:12:09;4.85;;;2.00;;
33824;SDS011;20127;48.962;8.342;2022-07-23T14:15:11;3.28;;;1.90;;
33824;SDS011;20127;48.962;8.342;2022-07-23T14:18:13;3.20;;;1.65;;
33824;SDS011;20127;48.962;8.342;2022-07-23T14:21:15;4.90;;;1.80;;
33824;SDS011;20127;48.962;8.342;2022-07-23T14:24:16;4.40;;;2.38;;
33824;SDS011;20127;48.962;8.342;2022-07-23T14:27:20;5.15;;;2.33;;
33824;SDS011;20127;48.962;8.342;2022-07-23T14:30:21;5.53;;;2.10;;
33824;SDS011;20127;48.962;8.342;2022-07-23T14:33:24;2.92;;;1.80;;
33824;SDS011;20127;48.962;8.342;2022-07-23T14:36:25;3.58;;;2.33;;
33824;SDS011;20127;48.962;8.342;2022-07-23T14:39:27;4.80;;;2.20;;
33824;SDS011;20127;48.962;8.342;2022-07-23T14:42:30;3.28;;;1.95;;
33824;SDS011;20127;48.962;8.342;2022-07-23T14:45:32;6.38;;;2.20;;
33824;SDS011;20127;48.962;8.342;2022-07-23T14:48:34;5.30;;;2.30;;
33824;SDS011;20127;48.962;8.342;2022-07-23T14:51:37;10.00;;;3.08;;
33824;SDS011;20127;48.962;8.342;2022-07-23T14:54:38;4.30;;;2.25;;
33824;SDS011;20127;48.962;8.342;2022-07-23T14:57:41;3.20;;;2.38;;
33824;SDS011;20127;48.962;8.342;2022-07-23T15:00:43;3.70;;;2.10;;
33824;SDS011;20127;48.962;8.342;2022-07-23T15:03:45;4.63;;;2.50;;
33824;SDS011;20127;48.962;8.342;2022-07-23T15:06:47;3.33;;;2.45;;
33824;SDS011;20127;48.962;8.342;2022-07-23T15:09:48;2.95;;;2.30;;
33824;SDS011;20127;48.962;8.342;2022-07-23T15:12:51;13.18;;;3.08;;
33824;SDS011;20127;48.962;8.342;2022-07-23T15:15:53;3.15;;;2.55;;
33824;SDS011;20127;48.962;8.342;2022-07-23T15:18:55;6.20;;;2.95;;
33824;SDS011;20127;48.962;8.342;2022-07-23T15:21:57;3.30;;;2.38;;
33824;SDS011;20127;48.962;8.342;2022-07-23T15:24:59;4.07;;;2.30;;
33824;SDS011;20127;48.962;8.342;2022-07-23T15:28:03;4.57;;;2.28;;
33824;SDS011;20127;48.962;8.342;2022-07-23T15:31:05;4.30;;;2.30;;
33824;SDS011;20127;48.962;8.342;2022-07-23T15:34:06;3.70;;;2.90;;
33824;SDS011;20127;48.962;8.342;2022-07-23T15:37:08;3.92;;;2.58;;
33824;SDS011;20127;48.962;8.342;2022-07-23T15:40:10;5.30;;;2.75;;
33824;SDS011;20127;48.962;8.342;2022-07-23T15:43:14;5.15;;;2.58;;
33824;SDS011;20127;48.962;8.342;2022-07-23T15:46:16;2.63;;;2.03;;
33824;SDS011;20127;48.962;8.342;2022-07-23T15:49:18;5.35;;;2.30;;
33824;SDS011;20127;48.962;8.342;2022-07-23T15:52:20;4.13;;;2.70;;
33824;SDS011;20127;48.962;8.342;2022-07-23T15:55:21;4.53;;;2.20;;
33824;SDS011;20127;48.962;8.342;2022-07-23T15:58:25;2.97;;;2.28;;
33824;SDS011;20127;48.962;8.342;2022-07-23T16:01:28;3.42;;;2.40;;
33824;SDS011;20127;48.962;8.342;2022-07-23T16:04:30;3.65;;;2.38;;
33824;SDS011;20127;48.962;8.342;2022-07-23T16:07:32;3.83;;;2.10;;
33824;SDS011;20127;48.962;8.342;2022-07-23T16:10:36;3.53;;;2.20;;
33824;SDS011;20127;48.962;8.342;2022-07-23T16:13:40;10.00;;;2.83;;
33824;SDS011;20127;48.962;8.342;2022-07-23T16:16:41;3.45;;;2.78;;
33824;SDS011;20127;48.962;8.342;2022-07-23T16:19:43;4.75;;;2.92;;
33824;SDS011;20127;48.962;8.342;2022-07-23T16:22:47;4.38;;;3.08;;
33824;SDS011;20127;48.962;8.342;2022-07-23T16:25:49;5.13;;;2.92;;
33824;SDS011;20127;48.962;8.342;2022-07-23T16:28:52;6.78;;;2.45;;
33824;SDS011;20127;48.962;8.342;2022-07-23T16:31:54;3.45;;;2.80;;
33824;SDS011;20127;48.962;8.342;2022-07-23T16:34:56;7.32;;;3.35;;
33824;SDS011;20127;48.962;8.342;2022-07-23T16:37:57;3.33;;;2.60;;
33824;SDS011;20127;48.962;8.342;2022-07-23T16:41:02;3.88;;;3.13;;
33824;SDS011;20127;48.962;8.342;2022-07-23T16:44:05;3.90;;;3.10;;
33824;SDS011;20127;48.962;8.342;2022-07-23T16:47:07;8.10;;;3.33;;
33824;SDS011;20127;48.962;8.342;2022-07-23T16:50:09;5.75;;;3.42;;
33824;SDS011;20127;48.962;8.342;2022-07-23T16:53:11;4.25;;;3.13;;
33824;SDS011;20127;48.962;8.342;2022-07-23T16:56:13;5.57;;;3.13;;
33824;SDS011;20127;48.962;8.342;2022-07-23T16:59:16;6.93;;;3.70;;
33824;SDS011;20127;48.962;8.342;2022-07-23T17:02:18;9.68;;;3.60;;
33824;SDS011;20127;48.962;8.342;2022-07-23T17:05:20;6.00;;;3.28;;
33824;SDS011;20127;48.962;8.342;2022-07-23T17:08:21;5.47;;;3.80;;
33824;SDS011;20127;48.962;8.342;2022-07-23T17:11:23;6.32;;;3.05;;
33824;SDS011;20127;48.962;8.342;2022-07-23T17:14:26;3.70;;;2.78;;
33824;SDS011;20127;48.962;8.342;2022-07-23T17:17:28;4.20;;;2.90;;
33824;SDS011;20127;48.962;8.342;2022-07-23T17:20:30;4.68;;;3.08;;
33824;SDS011;20127;48.962;8.342;2022-07-23T17:23:31;6.15;;;3.05;;
33824;SDS011;20127;48.962;8.342;2022-07-23T17:26:33;6.43;;;2.88;;
33824;SDS011;20127;48.962;8.342;2022-07-23T17:29:36;5.25;;;2.70;;
33824;SDS011;20127;48.962;8.342;2022-07-23T17:32:39;5.28;;;2.97;;
33824;SDS011;20127;48.962;8.342;2022-07-23T17:35:40;6.80;;;2.60;;
33824;SDS011;20127;48.962;8.342;2022-07-23T17:38:42;7.10;;;2.63;;
33824;SDS011;20127;48.962;8.342;2022-07-23T17:41:44;6.03;;;2.60;;
33824;SDS011;20127;48.962;8.342;2022-07-23T17:44:49;3.80;;;2.50;;
33824;SDS011;20127;48.962;8.342;2022-07-23T17:47:51;4.40;;;2.40;;
33824;SDS011;20127;48.962;8.342;2022-07-23T17:50:53;5.13;;;2.83;;
33824;SDS011;20127;48.962;8.342;2022-07-23T17:53:56;3.00;;;2.42;;
33824;SDS011;20127;48.962;8.342;2022-07-23T17:56:58;5.38;;;2.72;;
33824;SDS011;20127;48.962;8.342;2022-07-23T18:00:01;6.70;;;3.25;;
33824;SDS011;20127;48.962;8.342;2022-07-23T18:03:04;5.43;;;2.95;;
33824;SDS011;20127;48.962;8.342;2022-07-23T18:06:06;6.82;;;2.45;;
33824;SDS011;20127;48.962;8.342;2022-07-23T18:09:08;3.53;;;2.78;;
33824;SDS011;20127;48.962;8.342;2022-07-23T18:12:10;6.03;;;2.53;;
33824;SDS011;20127;48.962;8.342;2022-07-23T18:15:13;4.50;;;2.95;;
33824;SDS011;20127;48.962;8.342;2022-07-23T18:18:15;7.07;;;3.00;;
33824;SDS011;20127;48.962;8.342;2022-07-23T18:21:17;4.00;;;2.97;;
33824;SDS011;20127;48.962;8.342;2022-07-23T18:24:20;10.75;;;2.40;;
33824;SDS011;20127;48.962;8.342;2022-07-23T18:27:22;4.10;;;2.58;;
33824;SDS011;20127;48.962;8.342;2022-07-23T18:30:25;5.53;;;2.95;;